ADDS TAF Board (Experimental) INFO Settings
IDs: Format: Expanded Condensed

KDFW - Dallas-Ft Worth Intl, TX, US

Issued at 2322 UTC 03 Jul 2015
Updated at: 0142 UTC 04 Jul 2015
Time0053Z 04/02Z 04/03Z 04/04Z 04/05Z 04/06Z 04/07Z 04/08Z 04/09Z 04/10Z 04/11Z 04/12Z 04/13Z 04/14Z
Type OBS PRVL PRVL PRVL PRVL PRVL PRVL PRVL PRVL PRVL PRVL PRVL PRVL PRVL
VIS 10 >6 >6 >6 >6 >6 >6 >6 >6 >6 >6 >6 >6 >6
CIG 250 150 150 150 150 150 150 150 150 150 150 150 150 150
Cover BKN BKN BKN BKN BKN BKN BKN BKN BKN BKN BKN BKN BKN BKN
FltCat VFR VFR VFR VFR VFR VFR VFR VFR VFR VFR VFR VFR VFR VFR
WX -- -- -- -- -- -- -- -- -- -- -- -- -- --
WDir 200 180 180 180 180 180 180 180 180 180 180 180 180 180
WSpd 11 10 10 10 10 10 10 10 10 10 10 10 10 10
WGst -- -- -- -- -- -- -- -- -- -- -- -- -- --
R13/31
XWnd -10 -7 -7 -7 -7 -7 -7 -7 -7 -7 -7 -7 -7 -7
HWnd 5 7 7 7 7 7 7 7 7 7 7 7 7 7
R17/35
XWnd -4 0 0 0 0 0 0 0 0 0 0 0 0 0
HWnd 10 10 10 10 10 10 10 10 10 10 10 10 10 10
R18/36
XWnd -4 0 0 0 0 0 0 0 0 0 0 0 0 0
HWnd 10 10 10 10 10 10 10 10 10 10 10 10 10 10

NOTE: TEMPO conditions in [brackets]. Keep in mind TEMPO conditions might be better (lower impact) than prevailing conditions.

Raw TAF
KDFW 032322Z 0400/0506 20012KT P6SM SCT050 BKN150
  FM040200 18010KT P6SM BKN150
  FM041500 20008KT P6SM SCT030 BKN250
  FM042300 17011KT P6SM SCT050 BKN250


Raw METAR
KDFW 040053Z 20011KT 10SM SCT130 BKN250 31/19 A2988 RMK AO2 SLP110 T03110189
KDFW 032353Z 21010KT 10SM FEW050 BKN130 BKN250 32/19 A2990 RMK AO2 SLP115 TCU DSNT N-NE T03220189 10333 20317 55009
KDFW 032253Z 20012KT 10SM FEW050 SCT100 BKN130 BKN250 33/20 A2989 RMK AO2 SLP113 TCU DSNT NE-E T03280200

METAR Board
Radar Display
Forecast Discussion

TAF Board Legend

Potential Impact
Threat None Slight Moderate High
Visibility (sm) ≥5.1 5.1>X≥3 3>X≥1 <1
Ceiling (100 ft) ≥30.1 30.1>X≥10 10>X≥5 <5
Wind Speed (kt) <10 10≤X<20 20≤X<30 ≥30
Wind Gust (kt) <15 15≤X<25 25≤X<35 ≥35
Weather No Wx Reported VCTS,-TS,-FZRA,SN TS,FZRA +TS,+FZRA,+SN